Terminal Aerodrome Forecast
Issued by NWS

Home | Current Version | Previous Version | Text Only | Print | Product List | Glossary On
Versions: 1 2 3 4 5 6 7 8 9 10 11 12 13 14 15 16 17 18
000
FTUS45 KSLC 291120
TAFPVU
TAF
KPVU 291120Z 2912/3012 35003KT P6SM BKN050 BKN100
     FM291800 29009KT P6SM SCT070 BKN120
     FM300400 14005KT P6SM BKN120
      AMD LTD TO CLD VIS AND WIND=

USA.gov is the U.S. government's official web portal to all federal, state and local government web resources and services.